Airfield :
LOGIN :

Register | Disclaimer

   EN    FR    IT 

 










Legend :    VFR   Marginal VFR   IFR   Intensive IFR   Very Intensive IFR
Visi :
Ceiling :
>= 8 km
>= 3000ft
5 to 8 km
1000 to 3000 ft
1500m to 5 km
500 to 1000 ft
800 to 1500m
200 to 500 ft
< 800m
< 200 ft
Symbols :   Thunderstorms  Fog  Heavy snow  Heavy precipitations  Wind > 20 kt
SIGMETs :     Misc.  Thunderstorms  Icing  Turbulence  Mountain Waves  Volcanic Ashes







- Airport Elevation : 2096 ft
- IATA code : AUR
- Download approach charts


LFLW - Aurillac

CURRENT METAR :
  • 231730Z AUTO 00000KT 9999 OVC007 07/07 Q1029

EXPIRED METARs :
  • 231700Z AUTO 00000KT 7000 OVC006 07/07 Q1029 TEMPO 1500 -DZ BR BKN004 OVC008
  • 231630Z AUTO VRB02KT 4000 -RA BR SCT006 OVC010 07/07 Q1029 TEMPO 1500 -DZ BR BKN004 OVC008
  • 231600Z AUTO VRB02KT 3000 -DZ BR SCT004 OVC014 07/07 Q1029 TEMPO OVC006
  • 231530Z AUTO VRB02KT 1900 -DZ BR BKN004 OVC008 07/07 Q1028 TEMPO 3000 BR OVC006
  • 231500Z AUTO VRB02KT 6000 BKN008 OVC014 07/06 Q1028 TEMPO 3000 BR

TAF AMD TAF LFLW
Valid from the 23 at 15:00 until the 24 at 00:00 UTC


231550Z 2315/2324 VRB03KT 6000 SCT004 BKN008 OVC014
TEMPO 2315/2324 1500 -DZ BR BKN004 OVC008
No reported NOTAMs for that airfield.



MET'MAP, your aeronautical weather chart ! - Copyright ORBIFLY December 2007 - Disclaimer

ORBIFLY MET'MAP TEAM :

Programming & Development : Alexandra Zaïnal
Concept & Development : Baudouin d'Aumeries
Co-Development & Prog : Marc-Olivier Méhu
Technical & hardware support : Manuel Goepfert

Contact : metmap@orbifly.com




SOURCES & CREDITS :

   NOAA